Narrandera, New South Wales

5:59 AM AEST on August 31, 2015 (GMT +1000)
LEETON | | Change Station
CLOSE
Current Station
Personal Weather Station
Location: LEETON, NSW
Elevation: 453 ft
Nearby Weather Stations

Elev 453 ft 34.55 °S, 146.37 °E | Updated 1 second ago

Overcast
Overcast
35.6 °F
Feels Like 36 °F
N
0.0
Wind Variable Wind from North
Gusts 0.0 mph

Today
High -- | Low -- °F
--% Chance of Precip.
Yesterday
High -- | Low -- °F
Precip. -- in
6:35 AM 5:54 PM
Full, 98% visible
Pressure 30.06 in
Visibility 0.1 miles
Clouds Overcast 100 ft
Windchill 36 °F
Dew Point 34 °F
Humidity 94%
Rainfall 0.00 in
Snow Depth Not available.
UV 0 out of 12
Pollen Not available.
Air Quality Not available.
Flu Activity Not available.
SPECI YSWG 301930Z AUTO 00000KT 0100 // OVC001 04/03 Q1018
Pressure 30.06 in
Visibility 0.1 miles
Clouds Overcast 100 ft
Windchill 36 °F
Dew Point 34 °F
Humidity 94%
Rainfall 0.00 in
Snow Depth Not available.
UV 0 out of 12
Pollen Not available.
Air Quality Not available.
Flu Activity Not available.
SPECI YSWG 301930Z AUTO 00000KT 0100 // OVC001 04/03 Q1018

10-Day Weather Forecast

×

Almanac

Astronomy

Aug. 31, 2015 Rise Set
Actual Time
Civil Twilight
Nautical Twilight
Astronomical Twilight
Moon
Length of Visible Light
Length of Day
Tomorrow will be .
, % of the Moon is Illuminated

Today's Extremes

Country Highs Country Lows

Community

WunderPhotos

Upload Photos

1,851,041 photos uploaded!

WunderBlogs® & News

Nearby

Air Quality

  Air Quality AQ Index Pollutant
Not available.

Snow Depth

Station Depth Elevation

Earthquake Activity

City Distance Mag. Time & Date
Minimum magnitude displayed is 2.5.

Coastal Water Temperatures

Place Temperature

Stations

Nearby Weather Stations

Station Location Temp. Windchill Dew Point Humidity Wind Precip. Elev Updated Type